createdAt,value
2017-08-07T00:02:11.410Z,4.63
2017-08-07T00:04:37.485Z,4.70
2017-08-07T00:07:03.521Z,6.03
2017-08-07T00:09:29.574Z,6.47
2017-08-07T00:11:55.623Z,6.73
2017-08-07T00:14:21.717Z,5.30
2017-08-07T00:16:47.762Z,9.00
2017-08-07T00:19:13.801Z,5.70
2017-08-07T00:21:39.850Z,10.03
2017-08-07T00:24:05.884Z,16.40
2017-08-07T00:26:31.920Z,6.00
2017-08-07T00:28:57.957Z,4.87
2017-08-07T00:31:23.996Z,5.20
2017-08-07T00:33:50.021Z,5.40
2017-08-07T00:36:16.079Z,7.27
2017-08-07T00:38:49.131Z,4.80
2017-08-07T00:41:15.206Z,6.60
2017-08-07T00:43:41.254Z,5.67
2017-08-07T00:46:07.318Z,5.90
2017-08-07T00:48:33.384Z,6.73
2017-08-07T00:50:59.444Z,5.77
2017-08-07T00:53:25.480Z,5.10
2017-08-07T00:55:51.527Z,8.73
2017-08-07T00:58:17.586Z,7.77
2017-08-07T01:00:43.637Z,9.13
2017-08-07T01:03:09.656Z,5.77
2017-08-07T01:05:35.721Z,5.53
2017-08-07T01:08:01.769Z,5.30
2017-08-07T01:10:27.833Z,7.90
2017-08-07T01:12:53.911Z,11.27
2017-08-07T01:15:19.993Z,10.17
2017-08-07T01:17:46.045Z,5.13
2017-08-07T01:20:12.179Z,5.47
2017-08-07T01:22:38.238Z,7.10
2017-08-07T01:25:04.305Z,7.83
2017-08-07T01:27:30.366Z,4.70
2017-08-07T01:29:56.419Z,6.40
2017-08-07T01:32:22.469Z,5.63
2017-08-07T01:34:48.528Z,7.60
2017-08-07T01:37:15.326Z,5.90
2017-08-07T01:39:41.397Z,6.77
2017-08-07T01:42:07.421Z,8.80
2017-08-07T01:44:33.490Z,5.53
2017-08-07T01:47:00.274Z,7.20
2017-08-07T01:49:26.362Z,5.17
2017-08-07T01:51:52.455Z,5.13
2017-08-07T01:54:19.273Z,5.87
2017-08-07T01:56:45.337Z,8.20
2017-08-07T01:59:11.394Z,9.40
2017-08-07T02:01:38.164Z,5.43
2017-08-07T02:04:04.237Z,5.90
2017-08-07T02:06:30.294Z,6.00
2017-08-07T02:08:56.383Z,4.67
2017-08-07T02:11:22.451Z,6.93
2017-08-07T02:13:48.542Z,7.90
2017-08-07T02:16:14.608Z,4.30
2017-08-07T02:18:40.665Z,9.63
2017-08-07T02:21:06.722Z,4.80
2017-08-07T02:23:32.752Z,4.97
2017-08-07T02:25:58.830Z,7.60
2017-08-07T02:28:25.606Z,5.57
2017-08-07T02:30:51.707Z,7.97
2017-08-07T02:33:17.810Z,3.87
2017-08-07T02:35:43.865Z,6.60
2017-08-07T02:38:09.885Z,5.17
2017-08-07T02:40:35.957Z,5.23
2017-08-07T02:43:02.019Z,5.40
2017-08-07T02:45:28.083Z,5.60
2017-08-07T02:47:54.130Z,12.60
2017-08-07T02:50:20.198Z,5.17
2017-08-07T02:52:46.245Z,6.60
2017-08-07T02:55:12.286Z,5.33
2017-08-07T02:57:38.314Z,8.90
2017-08-07T03:00:04.353Z,4.63
2017-08-07T03:02:30.425Z,5.10
2017-08-07T03:04:56.461Z,4.70
2017-08-07T03:07:22.521Z,5.07
2017-08-07T03:09:48.580Z,6.90
2017-08-07T03:12:14.653Z,8.37
2017-08-07T03:14:40.726Z,5.13
2017-08-07T03:17:06.756Z,4.27
2017-08-07T03:19:32.813Z,6.10
2017-08-07T03:21:58.854Z,4.53
2017-08-07T03:24:24.901Z,6.40
2017-08-07T03:26:50.936Z,4.87
2017-08-07T03:29:17.017Z,4.90
2017-08-07T03:31:43.060Z,5.17
2017-08-07T03:34:09.158Z,4.63
2017-08-07T03:36:35.275Z,5.63
2017-08-07T03:39:01.296Z,8.33
2017-08-07T03:41:27.377Z,5.33
2017-08-07T03:43:54.160Z,5.17
2017-08-07T03:46:20.209Z,5.13
2017-08-07T03:48:46.243Z,5.70
2017-08-07T03:51:12.298Z,11.00
2017-08-07T03:53:38.352Z,6.30
2017-08-07T03:56:04.396Z,6.80
2017-08-07T03:58:30.457Z,7.13
2017-08-07T04:00:56.545Z,9.87
2017-08-07T04:03:22.591Z,6.20
2017-08-07T04:05:48.641Z,6.70
2017-08-07T04:08:14.687Z,6.80
2017-08-07T04:10:40.778Z,6.70
2017-08-07T04:13:06.813Z,6.20
2017-08-07T04:15:32.838Z,5.90
2017-08-07T04:17:58.897Z,5.47
2017-08-07T04:20:25.009Z,5.87
2017-08-07T04:22:51.081Z,4.90
2017-08-07T04:25:17.147Z,5.10
2017-08-07T04:27:43.195Z,10.90
2017-08-07T04:30:09.240Z,8.00
2017-08-07T04:32:35.384Z,7.53
2017-08-07T04:35:01.434Z,7.90
2017-08-07T04:37:27.485Z,8.97
2017-08-07T04:39:53.514Z,9.33
2017-08-07T04:42:19.562Z,8.60
2017-08-07T04:44:46.029Z,6.03
2017-08-07T04:47:12.076Z,7.00
2017-08-07T04:49:38.089Z,9.33
2017-08-07T04:52:04.197Z,7.30
2017-08-07T04:54:30.229Z,7.30
2017-08-07T04:56:56.267Z,8.97
2017-08-07T04:59:23.058Z,7.17
2017-08-07T05:01:49.108Z,7.63
2017-08-07T05:04:15.177Z,7.53
2017-08-07T05:06:41.197Z,9.67
2017-08-07T05:09:07.232Z,8.97
2017-08-07T05:11:34.042Z,10.13
2017-08-07T05:14:00.097Z,9.30
2017-08-07T05:16:26.117Z,7.97
2017-08-07T05:18:52.179Z,9.83
2017-08-07T05:21:18.249Z,11.90
2017-08-07T05:23:44.329Z,9.63
2017-08-07T05:26:10.426Z,8.90
2017-08-07T05:28:37.202Z,11.47
2017-08-07T05:31:03.269Z,11.03
2017-08-07T05:33:30.101Z,6.73
2017-08-07T05:35:56.165Z,7.43
2017-08-07T05:38:22.971Z,7.77
2017-08-07T05:40:50.374Z,8.20
2017-08-07T05:43:16.430Z,9.53
2017-08-07T05:45:42.453Z,7.43
2017-08-07T05:48:08.551Z,5.60
2017-08-07T05:50:34.593Z,6.23
2017-08-07T05:53:00.658Z,6.77
2017-08-07T05:55:26.705Z,8.10
2017-08-07T05:57:52.758Z,8.40
2017-08-07T06:00:19.550Z,12.73
2017-08-07T06:02:45.612Z,6.17
2017-08-07T06:05:11.641Z,9.23
2017-08-07T06:07:37.700Z,6.67
2017-08-07T06:10:03.757Z,11.30
2017-08-07T06:12:29.836Z,6.10
2017-08-07T06:14:56.610Z,7.67
2017-08-07T06:17:22.658Z,6.70
2017-08-07T06:19:48.730Z,9.73
2017-08-07T06:22:14.799Z,7.33
2017-08-07T06:24:41.581Z,8.93
2017-08-07T06:27:07.638Z,5.93
2017-08-07T06:29:33.682Z,5.53
2017-08-07T06:31:59.761Z,9.73
2017-08-07T06:34:26.540Z,9.17
2017-08-07T06:36:52.591Z,9.87
2017-08-07T06:39:19.367Z,6.10
2017-08-07T06:41:45.420Z,8.43
2017-08-07T06:44:11.463Z,9.00
2017-08-07T06:46:37.513Z,5.03
2017-08-07T06:49:03.528Z,6.50
2017-08-07T06:51:29.585Z,5.70
2017-08-07T06:53:55.623Z,9.37
2017-08-07T06:56:21.659Z,6.83
2017-08-07T06:58:47.804Z,8.70
2017-08-07T07:01:13.845Z,7.60
2017-08-07T07:03:39.879Z,7.97
2017-08-07T07:06:05.917Z,7.93
2017-08-07T07:08:31.968Z,12.07
2017-08-07T07:10:58.045Z,8.20
2017-08-07T07:13:24.080Z,10.17
2017-08-07T07:15:50.110Z,8.47
2017-08-07T07:18:16.169Z,8.50
2017-08-07T07:20:42.196Z,10.00
2017-08-07T07:23:08.217Z,9.00
2017-08-07T07:25:34.277Z,9.57
2017-08-07T07:28:00.306Z,6.80
2017-08-07T07:30:26.358Z,7.70
2017-08-07T07:32:52.727Z,8.00
2017-08-07T07:35:18.809Z,11.30
2017-08-07T07:37:44.831Z,7.97
2017-08-07T07:40:10.873Z,7.47
2017-08-07T07:42:36.890Z,6.20
2017-08-07T07:45:02.944Z,6.97
2017-08-07T07:47:28.966Z,7.13
2017-08-07T07:49:55.021Z,10.47
2017-08-07T07:52:21.110Z,6.37
2017-08-07T07:54:47.152Z,7.60
2017-08-07T07:57:13.174Z,6.80
2017-08-07T07:59:39.221Z,7.63
2017-08-07T08:02:05.328Z,4.70
2017-08-07T08:04:31.398Z,6.10
2017-08-07T08:06:57.425Z,7.67
2017-08-07T08:09:24.202Z,9.33
2017-08-07T08:11:50.277Z,7.37
2017-08-07T08:14:16.293Z,6.70
2017-08-07T08:16:57.282Z,6.43
2017-08-07T08:19:23.296Z,4.67
2017-08-07T08:21:49.357Z,6.10
2017-08-07T08:24:15.386Z,4.40
2017-08-07T08:26:41.437Z,5.30
2017-08-07T08:29:07.466Z,4.17
2017-08-07T08:31:33.504Z,10.03
2017-08-07T08:33:59.537Z,3.87
2017-08-07T08:36:25.592Z,4.50
2017-08-07T08:38:51.606Z,2.67
2017-08-07T08:41:17.650Z,3.33
2017-08-07T08:43:43.679Z,3.50
2017-08-07T08:46:09.722Z,4.30
2017-08-07T08:48:35.753Z,2.17
2017-08-07T08:51:01.812Z,3.53
2017-08-07T08:53:27.849Z,2.60
2017-08-07T08:55:53.892Z,3.13
2017-08-07T08:58:20.660Z,3.37
2017-08-07T09:00:46.707Z,2.20
2017-08-07T09:03:12.730Z,5.17
2017-08-07T09:05:38.785Z,5.10
2017-08-07T09:08:04.818Z,4.40
2017-08-07T09:10:30.897Z,3.50
2017-08-07T09:12:56.930Z,7.90
2017-08-07T09:15:22.980Z,4.37
2017-08-07T09:17:49.022Z,4.00
2017-08-07T09:20:15.064Z,3.47
2017-08-07T09:22:41.104Z,7.70
2017-08-07T09:25:07.138Z,2.80
2017-08-07T09:27:33.918Z,2.57
2017-08-07T09:29:59.953Z,3.47
2017-08-07T09:32:26.012Z,5.03
2017-08-07T09:34:52.058Z,4.67
2017-08-07T09:37:18.105Z,6.30
2017-08-07T09:39:44.113Z,5.57
2017-08-07T09:42:10.154Z,5.00
2017-08-07T09:44:36.178Z,6.27
2017-08-07T09:47:02.210Z,2.67
2017-08-07T09:49:28.241Z,4.00
2017-08-07T09:51:54.281Z,3.10
2017-08-07T09:54:21.072Z,2.77
2017-08-07T09:56:47.105Z,5.00
2017-08-07T09:59:13.129Z,5.10
2017-08-07T10:01:39.914Z,2.97
2017-08-07T10:04:05.933Z,2.77
2017-08-07T10:06:31.985Z,2.87
2017-08-07T10:08:58.008Z,2.73
2017-08-07T10:11:24.057Z,4.47
2017-08-07T10:13:50.094Z,5.53
2017-08-07T10:16:16.122Z,3.90
2017-08-07T10:18:42.913Z,2.40
2017-08-07T10:21:08.926Z,4.87
2017-08-07T10:23:34.968Z,2.23
2017-08-07T10:26:01.727Z,9.10
2017-08-07T10:28:27.774Z,3.10
2017-08-07T10:30:53.843Z,4.73
2017-08-07T10:33:19.892Z,3.73
2017-08-07T10:35:45.926Z,5.90
2017-08-07T10:38:11.970Z,3.20
2017-08-07T10:40:37.993Z,2.63
2017-08-07T10:43:04.038Z,1.80
2017-08-07T10:45:30.238Z,2.00
2017-08-07T10:47:56.321Z,7.20
2017-08-07T10:50:22.356Z,2.87
2017-08-07T10:52:48.393Z,3.23
2017-08-07T10:55:14.434Z,2.17
2017-08-07T10:57:40.466Z,2.73
2017-08-07T11:00:06.505Z,4.97
2017-08-07T11:02:32.519Z,4.70
2017-08-07T11:04:58.556Z,5.40
2017-08-07T11:07:24.580Z,3.20
2017-08-07T11:09:51.365Z,2.40
2017-08-07T11:12:17.410Z,2.00
2017-08-07T11:14:43.442Z,3.13
2017-08-07T11:17:09.475Z,3.87
2017-08-07T11:19:35.538Z,2.63
2017-08-07T11:22:01.561Z,2.60
2017-08-07T11:24:28.342Z,2.17
2017-08-07T11:26:54.365Z,2.30
2017-08-07T11:29:20.405Z,2.27
2017-08-07T11:31:46.456Z,2.87
2017-08-07T11:34:12.509Z,1.77
2017-08-07T11:36:38.526Z,2.37
2017-08-07T11:39:04.586Z,2.37
2017-08-07T11:41:30.610Z,1.90
2017-08-07T11:43:56.661Z,3.60
2017-08-07T11:46:22.704Z,1.80
2017-08-07T11:48:48.746Z,2.90
2017-08-07T11:51:14.778Z,2.90
2017-08-07T11:53:40.801Z,1.97
2017-08-07T11:56:06.836Z,2.67
2017-08-07T11:58:32.861Z,3.70
2017-08-07T12:00:58.900Z,2.70
2017-08-07T12:03:24.945Z,5.40
2017-08-07T12:05:51.727Z,2.00
2017-08-07T12:08:17.790Z,2.60
2017-08-07T12:10:44.610Z,3.70
2017-08-07T12:13:10.631Z,2.10
2017-08-07T12:15:37.413Z,2.40
2017-08-07T12:18:03.436Z,1.77
2017-08-07T12:20:29.471Z,1.83
2017-08-07T12:22:56.261Z,6.47
2017-08-07T12:25:22.414Z,2.80
2017-08-07T12:27:49.175Z,5.03
2017-08-07T12:30:15.231Z,2.00
2017-08-07T12:32:41.265Z,3.37
2017-08-07T12:35:08.043Z,2.03
2017-08-07T12:37:34.077Z,5.43
2017-08-07T12:40:00.170Z,2.40
2017-08-07T12:42:26.218Z,2.00
2017-08-07T12:44:52.240Z,2.37
2017-08-07T12:47:19.017Z,1.67
2017-08-07T12:49:45.037Z,2.10
2017-08-07T12:52:11.094Z,9.03
2017-08-07T12:54:37.867Z,2.20
2017-08-07T12:57:03.903Z,3.30
2017-08-07T12:59:29.934Z,2.60
2017-08-07T13:21:20.009Z,1.60
2017-08-07T13:23:46.050Z,1.97
2017-08-07T13:26:12.077Z,2.00
2017-08-07T13:28:38.098Z,1.67
2017-08-07T13:31:04.125Z,2.90
2017-08-07T13:33:30.148Z,2.40
2017-08-07T13:35:56.196Z,1.83
2017-08-07T13:38:22.211Z,1.53
2017-08-07T13:40:48.225Z,1.47
2017-08-07T13:43:14.248Z,3.40
2017-08-07T13:45:40.276Z,5.57
2017-08-07T13:48:13.396Z,1.37
2017-08-07T13:50:39.412Z,1.60
2017-08-07T13:53:05.437Z,1.50
2017-08-07T13:55:31.475Z,1.67
2017-08-07T13:57:59.109Z,1.60
2017-08-07T14:00:25.171Z,1.83
2017-08-07T14:02:51.290Z,1.63
2017-08-07T14:05:17.369Z,1.30
2017-08-07T14:07:44.137Z,2.67
2017-08-07T14:10:10.148Z,2.97
2017-08-07T14:12:36.205Z,2.40
2017-08-07T14:15:02.969Z,2.10
2017-08-07T14:17:29.004Z,1.80
2017-08-07T14:19:55.016Z,1.77
2017-08-07T14:22:21.049Z,1.53
2017-08-07T14:24:47.086Z,1.67
2017-08-07T14:27:13.881Z,1.57
2017-08-07T14:29:39.898Z,2.60
2017-08-07T14:32:05.908Z,3.63
2017-08-07T14:34:31.935Z,5.23
2017-08-07T14:36:58.717Z,2.40
2017-08-07T14:39:24.734Z,4.57
2017-08-07T14:41:50.749Z,2.20
2017-08-07T14:44:16.790Z,2.70
2017-08-07T14:46:42.814Z,2.30
2017-08-07T14:49:09.601Z,1.43
2017-08-07T14:51:35.633Z,1.60
2017-08-07T14:54:01.666Z,1.60
2017-08-07T14:56:27.677Z,2.33
2017-08-07T14:58:54.450Z,1.47
2017-08-07T15:01:20.473Z,1.93
2017-08-07T15:03:46.507Z,2.00
2017-08-07T15:06:12.520Z,1.63
2017-08-07T15:08:38.566Z,1.50
2017-08-07T15:11:04.604Z,2.00
2017-08-07T15:13:30.632Z,6.83
2017-08-07T15:15:56.645Z,1.70
2017-08-07T15:18:22.702Z,2.53
2017-08-07T15:20:48.705Z,7.40
2017-08-07T15:23:14.756Z,2.00
2017-08-07T15:25:40.776Z,2.00
2017-08-07T15:28:06.813Z,1.50
2017-08-07T15:30:32.829Z,3.23
2017-08-07T15:32:59.617Z,2.47
2017-08-07T15:35:25.638Z,1.50
2017-08-07T15:37:51.682Z,1.67
2017-08-07T15:40:17.709Z,2.33
2017-08-07T15:42:43.742Z,2.67
2017-08-07T15:45:09.753Z,1.97
2017-08-07T15:47:35.790Z,1.87
2017-08-07T15:50:01.817Z,4.43
2017-08-07T15:52:27.908Z,2.30
2017-08-07T15:54:53.932Z,2.90
2017-08-07T15:57:19.961Z,4.20
2017-08-07T15:59:46.001Z,1.90
2017-08-07T16:02:12.038Z,1.53
2017-08-07T16:04:38.053Z,2.17
2017-08-07T16:07:04.073Z,4.93
2017-08-07T16:09:30.084Z,3.07
2017-08-07T16:11:56.132Z,2.27
2017-08-07T16:14:22.903Z,4.40
2017-08-07T16:16:48.922Z,6.00
2017-08-07T16:19:14.974Z,1.50
2017-08-07T16:21:40.997Z,2.77
2017-08-07T16:24:07.034Z,3.27
2017-08-07T16:26:33.049Z,1.77
2017-08-07T16:28:59.075Z,1.60
2017-08-07T16:31:25.113Z,2.50
2017-08-07T16:33:51.150Z,1.90
2017-08-07T16:36:17.907Z,2.30
2017-08-07T16:38:43.949Z,2.83
2017-08-07T16:41:09.993Z,2.70
2017-08-07T16:43:36.761Z,2.00
2017-08-07T16:46:02.776Z,1.60
2017-08-07T16:48:28.852Z,1.90
2017-08-07T16:50:54.881Z,2.27
2017-08-07T16:53:20.894Z,1.70
2017-08-07T16:55:46.955Z,2.20
2017-08-07T16:58:12.983Z,2.07
2017-08-07T17:00:39.736Z,1.97
2017-08-07T17:03:05.769Z,3.23
2017-08-07T17:05:31.802Z,22.13
2017-08-07T17:07:57.829Z,4.30
2017-08-07T17:10:23.869Z,2.13
2017-08-07T17:12:49.890Z,1.60
2017-08-07T17:15:15.930Z,1.93
2017-08-07T17:17:41.963Z,3.17
2017-08-07T17:20:08.025Z,2.80
2017-08-07T17:22:34.041Z,4.20
2017-08-07T17:25:00.081Z,3.67
2017-08-07T17:27:26.095Z,2.10
2017-08-07T17:29:52.132Z,1.83
2017-08-07T17:32:18.893Z,5.50
2017-08-07T17:34:44.930Z,2.93
2017-08-07T17:37:10.968Z,3.40
2017-08-07T17:39:37.026Z,2.47
2017-08-07T17:42:03.076Z,2.70
2017-08-07T17:44:29.159Z,4.40
2017-08-07T17:46:55.191Z,8.70
2017-08-07T17:49:21.211Z,2.73
2017-08-07T17:51:47.265Z,4.47
2017-08-07T17:54:13.306Z,5.37
2017-08-07T17:56:39.355Z,3.57
2017-08-07T17:59:05.378Z,2.50
2017-08-07T18:01:32.165Z,8.90
2017-08-07T18:03:58.181Z,4.13
2017-08-07T18:06:24.226Z,4.17
2017-08-07T18:08:50.254Z,4.03
2017-08-07T18:11:16.297Z,3.43
2017-08-07T18:13:42.977Z,5.90
2017-08-07T18:16:09.749Z,2.70
2017-08-07T18:18:35.778Z,2.87
2017-08-07T18:21:01.813Z,3.97
2017-08-07T18:23:27.876Z,4.03
2017-08-07T18:25:53.913Z,7.03
2017-08-07T18:28:19.938Z,4.10
2017-08-07T18:30:45.981Z,6.67
2017-08-07T18:33:12.007Z,2.60
2017-08-07T18:35:38.073Z,3.43
2017-08-07T18:38:04.099Z,2.70
2017-08-07T18:40:30.121Z,4.30
2017-08-07T18:42:56.192Z,7.13
2017-08-07T18:45:22.217Z,3.97
2017-08-07T18:47:48.253Z,3.80
2017-08-07T18:50:14.277Z,2.63
2017-08-07T18:52:40.535Z,3.07
2017-08-07T18:55:06.542Z,4.10
2017-08-07T18:57:32.577Z,3.90
2017-08-07T18:59:58.632Z,5.57
2017-08-07T19:02:24.667Z,5.20
2017-08-07T19:04:50.734Z,10.03
2017-08-07T19:07:16.796Z,4.20
2017-08-07T19:09:42.946Z,5.83
2017-08-07T19:12:09.721Z,6.00
2017-08-07T19:14:35.741Z,6.40
2017-08-07T19:17:01.801Z,6.67
2017-08-07T19:19:27.832Z,4.77
2017-08-07T19:21:53.874Z,4.10
2017-08-07T19:24:19.894Z,5.23
2017-08-07T19:26:45.990Z,4.97
2017-08-07T19:29:12.006Z,7.20
2017-08-07T19:31:38.063Z,8.60
2017-08-07T19:34:04.820Z,5.60
2017-08-07T19:36:30.850Z,3.43
2017-08-07T19:38:56.872Z,6.80
2017-08-07T19:41:22.910Z,4.80
2017-08-07T19:43:49.675Z,17.77
2017-08-07T19:46:15.717Z,6.10
2017-08-07T19:48:41.778Z,8.83
2017-08-07T19:51:07.821Z,19.53
2017-08-07T19:53:33.836Z,21.53
2017-08-07T19:55:59.906Z,20.17
2017-08-07T19:58:26.672Z,17.90
2017-08-07T20:00:52.692Z,20.33
2017-08-07T20:03:18.733Z,15.67
2017-08-07T20:05:44.753Z,15.30
2017-08-07T20:08:11.741Z,10.23
2017-08-07T20:10:37.781Z,9.60
2017-08-07T20:13:03.824Z,11.10
2017-08-07T20:15:30.604Z,8.50
2017-08-07T20:17:56.658Z,11.23
2017-08-07T20:20:23.419Z,5.77
2017-08-07T20:22:49.453Z,3.90
2017-08-07T20:25:15.475Z,6.53
2017-08-07T20:27:41.522Z,7.10
2017-08-07T20:30:07.553Z,4.83
2017-08-07T20:32:33.594Z,12.10
2017-08-07T20:34:59.629Z,16.30
2017-08-07T20:37:25.666Z,11.73
2017-08-07T20:39:51.702Z,9.23
2017-08-07T20:42:17.737Z,23.87
2017-08-07T20:44:43.761Z,7.40
2017-08-07T20:47:09.792Z,7.40
2017-08-07T20:49:35.821Z,9.43
2017-08-07T20:52:01.901Z,7.70
2017-08-07T20:54:27.945Z,14.47
2017-08-07T20:56:53.965Z,13.23
2017-08-07T20:59:19.997Z,18.47
2017-08-07T21:01:46.057Z,8.07
2017-08-07T21:04:12.112Z,11.07
2017-08-07T21:06:38.185Z,14.13
2017-08-07T21:09:11.853Z,9.60
2017-08-07T21:11:37.905Z,7.40
2017-08-07T21:14:03.985Z,8.13
2017-08-07T21:16:30.007Z,10.33
2017-08-07T21:18:56.781Z,12.87
2017-08-07T21:21:22.831Z,10.23
2017-08-07T21:23:55.720Z,10.90
2017-08-07T21:26:21.744Z,12.03
2017-08-07T21:28:47.803Z,10.83
2017-08-07T21:31:13.830Z,9.43
2017-08-07T21:33:39.882Z,11.47
2017-08-07T21:36:05.909Z,9.77
2017-08-07T21:38:31.958Z,13.20
2017-08-07T21:40:57.998Z,9.13
2017-08-07T21:43:24.036Z,7.70
2017-08-07T21:45:50.056Z,5.40
2017-08-07T21:48:16.114Z,9.53
2017-08-07T21:50:42.884Z,7.30
2017-08-07T21:53:08.937Z,10.00
2017-08-07T21:55:34.956Z,9.33
2017-08-07T21:58:01.017Z,5.47
2017-08-07T22:00:27.038Z,11.37
2017-08-07T22:02:53.066Z,6.53
2017-08-07T22:05:19.097Z,4.73
2017-08-07T22:07:45.106Z,12.53
2017-08-07T22:10:11.160Z,11.07
2017-08-07T22:12:37.173Z,12.53
2017-08-07T22:15:03.209Z,6.00
2017-08-07T22:17:29.256Z,5.90
2017-08-07T22:19:56.031Z,5.70
2017-08-07T22:22:22.062Z,5.27
2017-08-07T22:24:48.104Z,7.00
2017-08-07T22:27:14.133Z,6.90
2017-08-07T22:29:40.184Z,6.80
2017-08-07T22:32:06.206Z,6.33
2017-08-07T22:34:32.239Z,5.53
2017-08-07T22:36:58.253Z,6.27
2017-08-07T22:39:25.103Z,5.90
2017-08-07T22:41:51.126Z,5.20
2017-08-07T22:44:17.190Z,7.40
2017-08-07T22:46:43.221Z,5.33
2017-08-07T22:49:10.001Z,11.83
2017-08-07T22:51:36.013Z,5.50
2017-08-07T22:54:02.053Z,5.03
2017-08-07T22:56:28.072Z,7.20
2017-08-07T22:58:54.127Z,5.53
2017-08-07T23:01:20.151Z,4.60
2017-08-07T23:03:46.213Z,5.20
2017-08-07T23:06:12.997Z,6.83
2017-08-07T23:08:39.035Z,10.00
2017-08-07T23:11:05.090Z,12.77
2017-08-07T23:13:31.536Z,8.00
2017-08-07T23:15:57.574Z,7.70
2017-08-07T23:18:23.600Z,5.87
2017-08-07T23:20:50.383Z,6.03
2017-08-07T23:23:16.398Z,7.53
2017-08-07T23:25:42.425Z,8.53
2017-08-07T23:28:08.485Z,8.37
2017-08-07T23:30:34.520Z,6.10
2017-08-07T23:33:00.553Z,6.80
2017-08-07T23:35:26.601Z,6.70
2017-08-07T23:37:53.362Z,7.67
2017-08-07T23:40:19.402Z,12.97
2017-08-07T23:42:45.417Z,9.83
2017-08-07T23:45:11.464Z,6.33
2017-08-07T23:47:38.234Z,9.17
2017-08-07T23:50:04.297Z,6.47
2017-08-07T23:52:31.061Z,6.63
2017-08-07T23:54:57.129Z,8.27
2017-08-07T23:57:25.119Z,10.13
2017-08-07T23:59:51.136Z,11.63
